createdAt,value
2017-09-13T00:00:38.304Z,97.7
2017-09-13T00:01:37.986Z,97.79
2017-09-13T00:02:37.982Z,97.41
2017-09-13T00:03:38.320Z,97.51
2017-09-13T00:04:38.265Z,97.41
2017-09-13T00:05:38.256Z,97.13
2017-09-13T00:06:37.948Z,97.13
2017-09-13T00:07:37.932Z,97.51
2017-09-13T00:08:37.922Z,97.31
2017-09-13T00:09:38.232Z,97.51
2017-09-13T00:10:38.215Z,97.13
2017-09-13T00:11:38.209Z,97.31
2017-09-13T00:12:38.207Z,97.31
2017-09-13T00:13:38.193Z,97.31
2017-09-13T00:14:38.180Z,97.31
2017-09-13T00:15:38.178Z,97.31
2017-09-13T00:16:38.167Z,97.31
2017-09-13T00:17:38.157Z,97.13
2017-09-13T00:18:38.155Z,97.51
2017-09-13T00:19:38.139Z,97.31
2017-09-13T00:20:37.820Z,97.13
2017-09-13T00:21:37.820Z,97.31
2017-09-13T00:22:38.112Z,97.51
2017-09-13T00:23:38.106Z,97.31
2017-09-13T00:24:38.104Z,97.03
2017-09-13T00:25:38.099Z,97.22
2017-09-13T00:26:38.093Z,97.03
2017-09-13T00:27:38.077Z,97.13
2017-09-13T00:28:37.752Z,97.22
2017-09-13T00:29:37.745Z,97.51
2017-09-13T00:30:38.044Z,97.13
2017-09-13T00:31:38.042Z,97.22
2017-09-13T00:32:37.727Z,97.22
2017-09-13T00:33:38.016Z,97.31
2017-09-13T00:34:38.010Z,97.22
2017-09-13T00:35:38.014Z,97.22
2017-09-13T00:36:37.994Z,97.41
2017-09-13T00:37:37.995Z,97.7
2017-09-13T00:38:37.681Z,97.79
2017-09-13T00:39:37.967Z,97.51
2017-09-13T00:40:37.969Z,97.41
2017-09-13T00:41:37.961Z,97.7
2017-09-13T00:42:37.952Z,97.7
2017-09-13T00:43:37.940Z,97.51
2017-09-13T00:44:37.926Z,97.6
2017-09-13T00:45:37.920Z,97.41
2017-09-13T00:46:37.914Z,97.51
2017-09-13T00:47:37.898Z,97.7
2017-09-13T00:48:37.892Z,97.89
2017-09-13T00:49:37.879Z,97.51
2017-09-13T00:50:37.880Z,97.79
2017-09-13T00:51:37.566Z,97.7
2017-09-13T00:52:37.858Z,97.7
2017-09-13T00:53:37.848Z,97.6
2017-09-13T00:54:37.539Z,97.7
2017-09-13T00:55:37.527Z,97.7
2017-09-13T00:56:37.817Z,97.99
2017-09-13T00:57:37.816Z,97.31
2017-09-13T00:58:37.802Z,97.7
2017-09-13T00:59:37.801Z,98.08
2017-09-13T01:00:37.785Z,97.99
2017-09-13T01:01:37.808Z,98.08
2017-09-13T01:02:37.772Z,97.99
2017-09-13T01:03:37.762Z,97.99
2017-09-13T01:04:37.758Z,98.08
2017-09-13T01:05:37.439Z,97.27
2017-09-13T01:06:37.431Z,97.79
2017-09-13T01:07:37.416Z,97.99
2017-09-13T01:08:37.716Z,97.55
2017-09-13T01:09:37.718Z,97.89
2017-09-13T01:10:37.709Z,97.51
2017-09-13T01:11:37.389Z,97.99
2017-09-13T01:12:37.686Z,97.99
2017-09-13T01:13:37.684Z,97.84
2017-09-13T01:14:37.665Z,97.65
2017-09-13T01:15:37.966Z,98.08
2017-09-13T01:16:37.342Z,97.65
2017-09-13T01:17:37.640Z,97.74
2017-09-13T01:18:37.628Z,97.74
2017-09-13T01:19:37.310Z,97.46
2017-09-13T01:20:37.619Z,97.6
2017-09-13T01:21:37.604Z,98.03
2017-09-13T01:22:37.609Z,97.46
2017-09-13T01:23:37.588Z,97.93
2017-09-13T01:24:37.596Z,97.46
2017-09-13T01:25:37.579Z,97.65
2017-09-13T01:26:37.570Z,97.46
2017-09-13T01:27:37.548Z,97.65
2017-09-13T01:28:37.543Z,97.55
2017-09-13T01:29:37.545Z,97.55
2017-09-13T01:30:37.532Z,97.84
2017-09-13T01:31:37.521Z,97.55
2017-09-13T01:32:37.512Z,97.65
2017-09-13T01:33:37.510Z,97.65
2017-09-13T01:34:37.500Z,97.55
2017-09-13T01:35:37.179Z,97.55
2017-09-13T01:36:37.476Z,97.93
2017-09-13T01:37:37.462Z,97.65
2017-09-13T01:38:37.145Z,97.65
2017-09-13T01:39:37.457Z,97.84
2017-09-13T01:40:37.443Z,97.55
2017-09-13T01:41:37.426Z,97.46
2017-09-13T01:42:37.419Z,97.46
2017-09-13T01:43:37.411Z,97.74
2017-09-13T01:44:37.409Z,97.84
2017-09-13T01:45:37.396Z,97.46
2017-09-13T01:46:37.843Z,97.46
2017-09-13T01:47:37.072Z,97.74
2017-09-13T01:48:37.368Z,97.65
2017-09-13T01:49:37.368Z,97.55
2017-09-13T01:50:37.041Z,97.65
2017-09-13T01:51:37.343Z,97.74
2017-09-13T01:52:37.330Z,97.46
2017-09-13T01:53:37.333Z,97.55
2017-09-13T01:54:37.321Z,97.65
2017-09-13T01:55:37.302Z,97.74
2017-09-13T01:56:36.995Z,97.74
2017-09-13T01:57:37.289Z,97.55
2017-09-13T01:58:37.280Z,97.65
2017-09-13T01:59:37.276Z,97.74
2017-09-13T02:00:37.267Z,97.36
2017-09-13T02:01:37.250Z,97.84
2017-09-13T02:02:37.243Z,97.46
2017-09-13T02:03:37.241Z,97.74
2017-09-13T02:04:37.226Z,97.74
2017-09-13T02:05:37.214Z,97.74
2017-09-13T02:06:37.206Z,97.74
2017-09-13T02:07:37.200Z,97.74
2017-09-13T02:08:37.186Z,97.74
2017-09-13T02:09:37.186Z,97.84
2017-09-13T02:10:37.178Z,98.03
2017-09-13T02:11:37.167Z,97.84
2017-09-13T02:12:37.155Z,97.74
2017-09-13T02:13:37.143Z,97.84
2017-09-13T02:14:37.160Z,97.46
2017-09-13T02:15:37.136Z,97.55
2017-09-13T02:16:37.126Z,97.74
2017-09-13T02:17:37.113Z,97.74
2017-09-13T02:18:37.105Z,97.65
2017-09-13T02:19:37.091Z,97.84
2017-09-13T02:20:37.089Z,97.93
2017-09-13T02:21:37.073Z,97.93
2017-09-13T02:22:37.072Z,97.46
2017-09-13T02:23:37.064Z,97.74
2017-09-13T02:24:37.047Z,97.46
2017-09-13T02:25:37.045Z,97.46
2017-09-13T02:26:37.027Z,97.65
2017-09-13T02:27:37.019Z,97.65
2017-09-13T02:28:37.015Z,97.46
2017-09-13T02:29:37.007Z,97.55
2017-09-13T02:30:36.994Z,97.46
2017-09-13T02:31:36.985Z,97.65
2017-09-13T02:32:36.986Z,97.46
2017-09-13T02:33:36.965Z,97.65
2017-09-13T02:34:36.657Z,97.93
2017-09-13T02:35:36.964Z,97.84
2017-09-13T02:36:36.952Z,97.46
2017-09-13T02:37:36.621Z,97.65
2017-09-13T02:38:36.929Z,97.27
2017-09-13T02:39:36.921Z,97.65
2017-09-13T02:40:36.906Z,97.74
2017-09-13T02:41:36.894Z,97.65
2017-09-13T02:42:36.888Z,97.65
2017-09-13T02:43:36.884Z,97.46
2017-09-13T02:44:36.874Z,97.84
2017-09-13T02:45:36.857Z,97.27
2017-09-13T02:46:36.861Z,97.93
2017-09-13T02:47:36.850Z,98.03
2017-09-13T02:48:36.837Z,97.46
2017-09-13T02:49:36.828Z,97.27
2017-09-13T02:50:36.816Z,97.51
2017-09-13T02:51:36.808Z,97.55
2017-09-13T02:52:36.806Z,97.55
2017-09-13T02:53:36.793Z,97.55
2017-09-13T02:54:36.791Z,97.65
2017-09-13T02:55:36.769Z,97.6
2017-09-13T02:56:36.769Z,97.55
2017-09-13T02:57:36.766Z,97.65
2017-09-13T02:58:36.765Z,97.6
2017-09-13T02:59:36.730Z,97.7
2017-09-13T03:00:36.739Z,97.6
2017-09-13T03:01:36.714Z,97.13
2017-09-13T03:02:36.706Z,97.51
2017-09-13T03:03:36.701Z,97.7
2017-09-13T03:04:36.692Z,97.6
2017-09-13T03:05:36.371Z,97.89
2017-09-13T03:06:36.675Z,97.79
2017-09-13T03:07:36.672Z,97.03
2017-09-13T03:08:36.350Z,97.41
2017-09-13T03:09:36.659Z,97.22
2017-09-13T03:10:36.654Z,97.7
2017-09-13T03:11:36.638Z,97.79
2017-09-13T03:12:36.628Z,97.31
2017-09-13T03:13:36.613Z,97.31
2017-09-13T03:14:36.604Z,97.13
2017-09-13T03:15:36.602Z,97.79
2017-09-13T03:16:36.592Z,96.94
2017-09-13T03:17:36.581Z,97.13
2017-09-13T03:18:36.577Z,97.41
2017-09-13T03:19:36.567Z,97.31
2017-09-13T03:20:36.548Z,97.22
2017-09-13T03:21:36.554Z,97.13
2017-09-13T03:22:36.535Z,97.13
2017-09-13T03:23:36.528Z,97.13
2017-09-13T03:24:36.513Z,97.03
2017-09-13T03:25:36.509Z,96.94
2017-09-13T03:26:36.497Z,97.22
2017-09-13T03:27:36.491Z,97.13
2017-09-13T03:28:36.478Z,96.94
2017-09-13T03:29:36.173Z,97.13
2017-09-13T03:30:36.158Z,97.13
2017-09-13T03:31:36.152Z,97.03
2017-09-13T03:32:36.139Z,96.84
2017-09-13T03:33:36.443Z,96.94
2017-09-13T03:34:36.120Z,97.13
2017-09-13T03:35:36.415Z,97.03
2017-09-13T03:36:36.110Z,97.03
2017-09-13T03:37:36.097Z,97.03
2017-09-13T03:38:36.392Z,97.03
2017-09-13T03:39:36.075Z,96.94
2017-09-13T03:40:36.372Z,97.13
2017-09-13T03:41:36.061Z,97.03
2017-09-13T03:42:36.360Z,96.94
2017-09-13T03:43:36.381Z,97.03
2017-09-13T03:44:36.342Z,96.94
2017-09-13T03:45:36.342Z,96.94
2017-09-13T03:46:36.326Z,96.84
2017-09-13T03:47:36.327Z,97.03
2017-09-13T03:48:36.315Z,96.94
2017-09-13T03:49:36.305Z,97.13
2017-09-13T03:50:36.290Z,96.94
2017-09-13T03:51:36.321Z,97.13
2017-09-13T03:52:36.276Z,96.94
2017-09-13T03:53:36.268Z,96.94
2017-09-13T03:54:36.260Z,96.84
2017-09-13T03:55:35.934Z,96.94
2017-09-13T03:56:35.928Z,96.84
2017-09-13T03:57:35.929Z,97.03
2017-09-13T03:58:36.217Z,97.03
2017-09-13T03:59:36.219Z,96.98
2017-09-13T04:00:36.202Z,97.03
2017-09-13T04:01:36.199Z,97.03
2017-09-13T04:02:36.186Z,96.98
2017-09-13T04:03:36.174Z,97.17
2017-09-13T04:04:36.167Z,97.36
2017-09-13T04:05:36.166Z,97.17
2017-09-13T04:06:36.159Z,97.08
2017-09-13T04:07:36.136Z,97.08
2017-09-13T04:08:36.130Z,97.08
2017-09-13T04:09:36.131Z,97.46
2017-09-13T04:10:36.121Z,97.93
2017-09-13T04:11:36.146Z,97.93
2017-09-13T04:12:36.101Z,97.74
2017-09-13T04:13:36.101Z,97.08
2017-09-13T04:14:36.084Z,97.55
2017-09-13T04:15:36.080Z,97.55
2017-09-13T04:16:36.067Z,97.84
2017-09-13T04:17:36.063Z,97.65
2017-09-13T04:18:36.054Z,97.93
2017-09-13T04:19:36.035Z,97.84
2017-09-13T04:20:36.036Z,97.84
2017-09-13T04:21:36.015Z,97.65
2017-09-13T04:22:36.257Z,97.55
2017-09-13T04:23:36.004Z,97.74
2017-09-13T04:24:35.997Z,97.65
2017-09-13T04:25:35.673Z,97.55
2017-09-13T04:26:35.981Z,97.55
2017-09-13T04:27:35.970Z,97.74
2017-09-13T04:28:35.947Z,97.79
2017-09-13T04:29:35.635Z,97.55
2017-09-13T04:30:35.938Z,97.51
2017-09-13T04:31:35.941Z,97.65
2017-09-13T04:32:35.919Z,97.65
2017-09-13T04:33:35.911Z,97.36
2017-09-13T04:34:35.910Z,97.51
2017-09-13T04:35:35.904Z,97.51
2017-09-13T04:36:35.889Z,97.51
2017-09-13T04:37:35.882Z,97.7
2017-09-13T04:38:35.871Z,97.51
2017-09-13T04:39:35.859Z,97.51
2017-09-13T04:40:35.537Z,97.7
2017-09-13T04:41:35.840Z,97.6
2017-09-13T04:42:35.845Z,97.79
2017-09-13T04:43:35.822Z,97.31
2017-09-13T04:44:35.814Z,97.79
2017-09-13T04:45:35.808Z,97.65
2017-09-13T04:46:35.483Z,97.7
2017-09-13T04:47:35.479Z,97.36
2017-09-13T04:48:35.786Z,96.98
2017-09-13T04:49:35.789Z,96.7
2017-09-13T04:50:35.769Z,96.89
2017-09-13T04:51:35.761Z,96.89
2017-09-13T04:52:35.440Z,97.17
2017-09-13T04:53:35.988Z,97.27
2017-09-13T04:54:35.737Z,97.27
2017-09-13T04:55:35.722Z,97.13
2017-09-13T04:56:35.714Z,97.03
2017-09-13T04:57:35.394Z,96.94
2017-09-13T04:58:35.701Z,97.22
2017-09-13T04:59:35.690Z,97.13
2017-09-13T05:00:35.369Z,96.75
2017-09-13T05:01:35.662Z,96.46
2017-09-13T05:02:35.667Z,96.46
2017-09-13T05:03:35.655Z,96.61
2017-09-13T05:04:35.648Z,96.8
2017-09-13T05:05:35.641Z,96.13
2017-09-13T05:06:35.632Z,96.03
2017-09-13T05:07:35.620Z,95.65
2017-09-13T05:08:35.617Z,95.84
2017-09-13T05:09:35.602Z,95.7
2017-09-13T05:10:35.607Z,95.7
2017-09-13T05:11:35.590Z,95.03
2017-09-13T05:12:35.587Z,95.03
2017-09-13T05:13:35.577Z,94.7
2017-09-13T05:14:35.580Z,94.6
2017-09-13T05:15:35.566Z,94.41
2017-09-13T05:16:35.558Z,94.27
2017-09-13T05:17:35.555Z,94.07
2017-09-13T05:18:35.554Z,93.65
2017-09-13T05:19:35.547Z,93.36
2017-09-13T05:20:35.530Z,92.69
2017-09-13T05:21:35.536Z,92.74
2017-09-13T05:22:35.524Z,92.74
2017-09-13T05:23:35.201Z,92.64
2017-09-13T05:24:35.199Z,92.74
2017-09-13T05:25:35.194Z,91.68
2017-09-13T05:26:35.509Z,91.88
2017-09-13T05:27:35.486Z,91.59
2017-09-13T05:28:35.486Z,91.97
2017-09-13T05:29:35.481Z,91.78
2017-09-13T05:30:35.480Z,91.64
2017-09-13T05:31:35.154Z,91.49
2017-09-13T05:32:35.470Z,91.68
2017-09-13T05:33:35.144Z,91.59
2017-09-13T05:34:35.143Z,91.74
2017-09-13T05:35:35.450Z,91.16
2017-09-13T05:36:35.437Z,91.54
2017-09-13T05:37:35.440Z,91.45
2017-09-13T05:38:35.425Z,92.4
2017-09-13T05:39:35.417Z,92.11
2017-09-13T05:40:35.104Z,92.11
2017-09-13T05:41:35.104Z,92.59
2017-09-13T05:42:35.410Z,92.97
2017-09-13T05:43:35.400Z,92.79
2017-09-13T05:44:35.389Z,92.69
2017-09-13T05:45:35.392Z,92.59
2017-09-13T05:46:35.385Z,92.69
2017-09-13T05:47:35.370Z,91.83
2017-09-13T05:48:35.376Z,92.88
2017-09-13T05:49:35.358Z,92.69
2017-09-13T05:50:35.360Z,91.83
2017-09-13T05:51:35.355Z,92.02
2017-09-13T05:52:35.344Z,91.83
2017-09-13T05:53:35.336Z,92.88
2017-09-13T05:54:35.024Z,92.69
2017-09-13T05:55:35.329Z,92.59
2017-09-13T05:56:35.323Z,92.02
2017-09-13T05:57:35.319Z,92.69
2017-09-13T05:58:35.312Z,92.59
2017-09-13T05:59:35.294Z,92.3
2017-09-13T06:00:35.298Z,92.88
2017-09-13T06:01:35.289Z,92.88
2017-09-13T06:02:35.278Z,92.11
2017-09-13T06:03:35.281Z,92.11
2017-09-13T06:04:35.279Z,92.02
2017-09-13T06:05:35.270Z,92.21
2017-09-13T06:06:35.253Z,92.54
2017-09-13T06:07:35.246Z,92.4
2017-09-13T06:08:35.267Z,91.93
2017-09-13T06:09:35.233Z,92.16
2017-09-13T06:10:34.928Z,91.68
2017-09-13T06:11:35.233Z,91.68
2017-09-13T06:12:34.911Z,91.59
2017-09-13T06:13:35.208Z,90.82
2017-09-13T06:14:35.204Z,90.63
2017-09-13T06:15:35.208Z,90.92
2017-09-13T06:16:34.885Z,90.63
2017-09-13T06:17:35.191Z,90.82
2017-09-13T06:18:35.183Z,91.11
2017-09-13T06:19:34.870Z,90.92
2017-09-13T06:20:35.186Z,91.49
2017-09-13T06:21:35.162Z,90.92
2017-09-13T06:22:34.859Z,90.63
2017-09-13T06:23:35.161Z,90.73
2017-09-13T06:24:35.153Z,90.63
2017-09-13T06:25:35.139Z,90.92
2017-09-13T06:26:35.146Z,91.39
2017-09-13T06:27:35.136Z,91.49
2017-09-13T06:28:35.126Z,91.2
2017-09-13T06:29:35.122Z,91.39
2017-09-13T06:30:35.111Z,91.39
2017-09-13T06:31:35.112Z,91.39
2017-09-13T06:32:35.111Z,91.49
2017-09-13T06:33:35.103Z,91.3
2017-09-13T06:34:35.095Z,91.2
2017-09-13T06:35:35.095Z,91.39
2017-09-13T06:36:35.079Z,91.49
2017-09-13T06:37:35.074Z,91.68
2017-09-13T06:38:34.763Z,91.49
2017-09-13T06:39:35.060Z,91.68
2017-09-13T06:40:34.744Z,91.39
2017-09-13T06:41:35.055Z,91.39
2017-09-13T06:42:35.042Z,91.49
2017-09-13T06:43:34.722Z,91.97
2017-09-13T06:44:35.034Z,91.78
2017-09-13T06:45:34.712Z,92.35
2017-09-13T06:46:35.019Z,91.97
2017-09-13T06:47:35.017Z,92.16
2017-09-13T06:48:35.009Z,92.74
2017-09-13T06:49:35.003Z,92.74
2017-09-13T06:50:34.993Z,92.45
2017-09-13T06:51:34.675Z,92.64
2017-09-13T06:52:34.989Z,92.35
2017-09-13T06:53:34.676Z,92.54
2017-09-13T06:54:34.970Z,92.83
2017-09-13T06:55:34.972Z,93.4
2017-09-13T06:56:34.972Z,93.79
2017-09-13T06:57:34.951Z,93.6
2017-09-13T06:58:34.640Z,93.6
2017-09-13T06:59:34.937Z,93.79
2017-09-13T07:00:34.625Z,93.6
2017-09-13T07:01:34.938Z,93.98
2017-09-13T07:02:34.933Z,93.79
2017-09-13T07:03:34.608Z,93.88
2017-09-13T07:04:34.913Z,94.17
2017-09-13T07:05:34.912Z,94.46
2017-09-13T07:06:34.901Z,94.46
2017-09-13T07:07:34.889Z,94.65
2017-09-13T07:08:34.884Z,94.74
2017-09-13T07:09:34.880Z,94.55
2017-09-13T07:10:34.874Z,94.26
2017-09-13T07:11:34.870Z,94.36
2017-09-13T07:12:34.861Z,94.55
2017-09-13T07:13:34.549Z,94.55
2017-09-13T07:14:34.849Z,94.17
2017-09-13T07:15:34.846Z,94.36
2017-09-13T07:16:34.835Z,94.31
2017-09-13T07:17:34.841Z,93.93
2017-09-13T07:18:34.524Z,94.21
2017-09-13T07:19:34.822Z,93.98
2017-09-13T07:20:34.815Z,94.17
2017-09-13T07:21:34.818Z,94.26
2017-09-13T07:22:34.810Z,93.98
2017-09-13T07:23:34.814Z,94.65
2017-09-13T07:24:34.793Z,94.46
2017-09-13T07:25:34.801Z,94.31
2017-09-13T07:26:34.784Z,94.5
2017-09-13T07:27:34.471Z,94.5
2017-09-13T07:28:34.775Z,94.5
2017-09-13T07:29:34.765Z,94.41
2017-09-13T07:30:34.763Z,94.5
2017-09-13T07:31:34.758Z,94.02
2017-09-13T07:32:34.753Z,94.31
2017-09-13T07:33:34.434Z,94.31
2017-09-13T07:34:34.428Z,94.12
2017-09-13T07:35:34.738Z,94.02
2017-09-13T07:36:34.735Z,93.84
2017-09-13T07:37:34.732Z,93.55
2017-09-13T07:38:34.723Z,93.88
2017-09-13T07:39:34.720Z,93.4
2017-09-13T07:40:34.712Z,93.12
2017-09-13T07:41:34.703Z,93.21
2017-09-13T07:42:34.693Z,93.12
2017-09-13T07:43:34.702Z,93.3
2017-09-13T07:44:34.685Z,93.3
2017-09-13T07:45:34.683Z,92.83
2017-09-13T07:46:34.373Z,92.63
2017-09-13T07:47:34.364Z,93.12
2017-09-13T07:48:34.678Z,92.73
2017-09-13T07:49:34.662Z,92.01
2017-09-13T07:50:34.660Z,92.3
2017-09-13T07:51:34.652Z,92.4
2017-09-13T07:52:34.654Z,91.72
2017-09-13T07:53:34.337Z,92.11
2017-09-13T07:54:34.648Z,91.72
2017-09-13T07:55:34.636Z,91.53
2017-09-13T07:56:34.633Z,91.82
2017-09-13T07:57:34.634Z,91.44
2017-09-13T07:58:34.622Z,91.25
2017-09-13T07:59:34.611Z,90.86
2017-09-13T08:00:34.612Z,91.1
2017-09-13T08:01:34.602Z,91.1
2017-09-13T08:02:34.603Z,91.49
2017-09-13T08:03:34.606Z,91.58
2017-09-13T08:04:34.599Z,91.77
2017-09-13T08:05:34.284Z,92.63
2017-09-13T08:06:34.586Z,91.77
2017-09-13T08:07:34.269Z,92.44
2017-09-13T08:08:34.569Z,92.82
2017-09-13T08:09:34.260Z,93.07
2017-09-13T08:10:34.572Z,93.35
2017-09-13T08:11:34.563Z,92.78
2017-09-13T08:12:34.560Z,92.78
2017-09-13T08:13:34.558Z,92.97
2017-09-13T08:14:34.548Z,92.78
2017-09-13T08:15:34.544Z,92.4
2017-09-13T08:16:34.535Z,92.87
2017-09-13T08:17:34.534Z,92.87
2017-09-13T08:18:34.535Z,92.87
2017-09-13T08:19:34.526Z,92.78
2017-09-13T08:20:34.212Z,92.87
2017-09-13T08:21:34.517Z,92.21
2017-09-13T08:22:34.518Z,92.11
2017-09-13T08:23:34.507Z,92.49
2017-09-13T08:24:34.506Z,93.07
2017-09-13T08:25:34.502Z,92.87
2017-09-13T08:26:34.484Z,92.78
2017-09-13T08:27:34.478Z,92.78
2017-09-13T08:28:34.487Z,92.87
2017-09-13T08:29:34.469Z,92.78
2017-09-13T08:30:34.476Z,92.78
2017-09-13T08:31:34.471Z,92.92
2017-09-13T08:32:34.478Z,92.92
2017-09-13T08:33:34.458Z,93.12
2017-09-13T08:34:34.446Z,92.73
2017-09-13T08:35:34.471Z,93.4
2017-09-13T08:36:34.449Z,93.21
2017-09-13T08:37:34.434Z,93.3
2017-09-13T08:38:34.435Z,93.69
2017-09-13T08:39:34.117Z,93.3
2017-09-13T08:40:34.425Z,93.3
2017-09-13T08:41:34.660Z,93.3
2017-09-13T08:42:34.410Z,92.92
2017-09-13T08:43:34.405Z,92.83
2017-09-13T08:44:34.406Z,92.97
2017-09-13T08:45:34.395Z,92.97
2017-09-13T08:46:34.390Z,92.58
2017-09-13T08:47:34.076Z,92.87
2017-09-13T08:48:34.412Z,92.87
2017-09-13T08:49:34.385Z,92.78
2017-09-13T08:50:34.383Z,92.97
2017-09-13T08:51:34.370Z,92.3
2017-09-13T08:52:34.050Z,93.45
2017-09-13T08:53:34.357Z,93.54
2017-09-13T08:54:34.038Z,93.93
2017-09-13T08:55:34.338Z,94.21
2017-09-13T08:56:34.036Z,94.6
2017-09-13T08:57:34.029Z,94.31
2017-09-13T08:58:34.325Z,94.4
2017-09-13T08:59:34.321Z,94.5
2017-09-13T09:00:34.320Z,94.69
2017-09-13T09:01:34.313Z,94.98
2017-09-13T09:02:34.304Z,95.41
2017-09-13T09:03:34.308Z,95.61
2017-09-13T09:04:34.308Z,95.12
2017-09-13T09:05:34.302Z,95.41
2017-09-13T09:06:34.297Z,95.61
2017-09-13T09:07:34.538Z,95.7
2017-09-13T09:08:33.965Z,95.51
2017-09-13T09:09:34.278Z,95.41
2017-09-13T09:10:34.262Z,95.79
2017-09-13T09:11:34.257Z,94.93
2017-09-13T09:12:34.254Z,95.12
2017-09-13T09:13:34.258Z,95.31
2017-09-13T09:14:34.247Z,95.22
2017-09-13T09:15:34.246Z,95.41
2017-09-13T09:16:33.928Z,94.45
2017-09-13T09:17:34.229Z,94.65
2017-09-13T09:18:34.223Z,94.74
2017-09-13T09:19:34.221Z,94.26
2017-09-13T09:20:34.217Z,94.55
2017-09-13T09:21:34.214Z,93.98
2017-09-13T09:22:33.925Z,94.26
2017-09-13T09:23:33.891Z,94.02
2017-09-13T09:24:34.200Z,94.02
2017-09-13T09:25:34.194Z,93.64
2017-09-13T09:26:33.872Z,93.88
2017-09-13T09:27:34.178Z,93.74
2017-09-13T09:28:34.118Z,93.83
2017-09-13T09:29:34.174Z,93.54
2017-09-13T09:30:34.160Z,93.35
2017-09-13T09:31:34.159Z,93.07
2017-09-13T09:32:34.161Z,93.35
2017-09-13T09:33:34.411Z,93.16
2017-09-13T09:34:34.160Z,92.82
2017-09-13T09:35:34.143Z,92.78
2017-09-13T09:36:33.823Z,93.4
2017-09-13T09:37:34.140Z,93.02
2017-09-13T09:38:33.820Z,92.35
2017-09-13T09:39:33.815Z,92.54
2017-09-13T09:40:34.130Z,92.73
2017-09-13T09:41:33.808Z,92.92
2017-09-13T09:42:34.109Z,93.02
2017-09-13T09:43:34.110Z,93.11
2017-09-13T09:44:33.796Z,92.92
2017-09-13T09:45:33.791Z,92.3
2017-09-13T09:46:34.085Z,92.2
2017-09-13T09:47:34.097Z,91.91
2017-09-13T09:48:34.076Z,91.72
2017-09-13T09:49:34.086Z,91.91
2017-09-13T09:50:34.076Z,91.05
2017-09-13T09:51:34.068Z,90.9
2017-09-13T09:52:34.063Z,90.9
2017-09-13T09:53:33.748Z,90.52
2017-09-13T09:54:34.317Z,90.14
2017-09-13T09:55:34.050Z,89.65
2017-09-13T09:56:34.058Z,89.94
2017-09-13T09:57:33.738Z,89.85
2017-09-13T09:58:34.041Z,89.65
2017-09-13T09:59:35.085Z,89.27
2017-09-13T10:00:34.041Z,89.32
2017-09-13T10:01:33.718Z,89.41
2017-09-13T10:02:33.712Z,89.22
2017-09-13T10:03:34.016Z,89.32
2017-09-13T10:04:33.712Z,88.93
2017-09-13T10:05:33.706Z,88.65
2017-09-13T10:06:33.709Z,89.12
2017-09-13T10:07:33.693Z,88.35
2017-09-13T10:08:33.694Z,87.82
2017-09-13T10:09:33.691Z,87.92
2017-09-13T10:10:33.684Z,87.92
2017-09-13T10:11:33.999Z,87.63
2017-09-13T10:12:33.677Z,87.77
2017-09-13T10:13:33.981Z,87.77
2017-09-13T10:14:33.985Z,87.49
2017-09-13T10:15:33.968Z,87.24
2017-09-13T10:16:33.975Z,86.85
2017-09-13T10:17:33.979Z,85.84
2017-09-13T10:18:33.967Z,85.84
2017-09-13T10:19:33.659Z,85.17
2017-09-13T10:20:34.315Z,85.65
2017-09-13T10:21:33.958Z,85.07
2017-09-13T10:22:33.965Z,85.4
2017-09-13T10:23:33.961Z,84.92
2017-09-13T10:24:33.949Z,85.31
2017-09-13T10:25:33.652Z,85.02
2017-09-13T10:26:33.956Z,85.21
2017-09-13T10:27:33.640Z,85.21
2017-09-13T10:28:33.939Z,84.73
2017-09-13T10:29:33.953Z,84.63
2017-09-13T10:30:33.630Z,84.44
2017-09-13T10:31:33.950Z,85.02
2017-09-13T10:32:33.940Z,85.69
2017-09-13T10:33:33.929Z,85.6
2017-09-13T10:34:33.941Z,85.6
2017-09-13T10:35:33.937Z,85.94
2017-09-13T10:36:33.929Z,86.42
2017-09-13T10:37:33.622Z,85.94
2017-09-13T10:38:33.924Z,86.42
2017-09-13T10:39:33.927Z,85.94
2017-09-13T10:40:33.919Z,86.04
2017-09-13T10:41:34.325Z,86.32
2017-09-13T10:42:33.923Z,86.71
2017-09-13T10:43:33.915Z,86.52
2017-09-13T10:44:33.910Z,86.42
2017-09-13T10:45:33.605Z,86.42
2017-09-13T10:46:34.203Z,86.42
2017-09-13T10:47:33.598Z,87.05
2017-09-13T10:48:33.911Z,86.85
2017-09-13T10:49:33.893Z,86.52
2017-09-13T10:50:33.904Z,85.55
2017-09-13T10:51:33.901Z,85.84
2017-09-13T10:52:33.888Z,85.84
2017-09-13T10:53:33.895Z,86.04
2017-09-13T10:54:33.881Z,85.78
2017-09-13T10:55:33.883Z,85.36
2017-09-13T10:56:33.573Z,85.11
2017-09-13T10:57:33.888Z,85.11
2017-09-13T10:58:33.876Z,84.83
2017-09-13T10:59:33.871Z,84.92
2017-09-13T11:00:33.568Z,85.11
2017-09-13T11:01:33.873Z,85.5
2017-09-13T11:02:33.868Z,85.69
2017-09-13T11:03:33.555Z,85.98
2017-09-13T11:04:33.867Z,85.69
2017-09-13T11:05:33.859Z,84.98
2017-09-13T11:06:33.857Z,85.75
2017-09-13T11:07:34.150Z,85.84
2017-09-13T11:08:33.545Z,85.65
2017-09-13T11:09:33.844Z,85.65
2017-09-13T11:10:33.854Z,85.75
2017-09-13T11:11:33.533Z,85.55
2017-09-13T11:12:34.147Z,85.65
2017-09-13T11:13:33.833Z,85.17
2017-09-13T11:14:33.523Z,85.27
2017-09-13T11:15:33.838Z,84.88
2017-09-13T11:16:33.830Z,85.27
2017-09-13T11:17:33.517Z,84.78
2017-09-13T11:18:33.826Z,84.54
2017-09-13T11:19:33.818Z,84.06
2017-09-13T11:20:33.812Z,82.61
2017-09-13T11:21:33.509Z,82.75
2017-09-13T11:22:33.507Z,82.37
2017-09-13T11:23:33.812Z,81.63
2017-09-13T11:24:33.818Z,81.54
2017-09-13T11:25:33.803Z,81.54
2017-09-13T11:26:33.812Z,79.75
2017-09-13T11:27:33.817Z,79.66
2017-09-13T11:28:33.800Z,79.56
2017-09-13T11:29:33.821Z,77.86
2017-09-13T11:30:33.488Z,76.8
2017-09-13T11:31:33.482Z,76.32
2017-09-13T11:32:33.799Z,76.32
2017-09-13T11:33:33.732Z,75.84
2017-09-13T11:34:33.793Z,75.49
2017-09-13T11:35:33.797Z,75.2
2017-09-13T11:36:33.793Z,75.1
2017-09-13T11:37:33.793Z,75.01
2017-09-13T11:38:34.091Z,74.91
2017-09-13T11:39:33.795Z,74.05
2017-09-13T11:40:33.794Z,74.33
2017-09-13T11:41:33.482Z,74.37
2017-09-13T11:42:33.789Z,73.69
2017-09-13T11:43:33.795Z,73.89
2017-09-13T11:44:33.779Z,74.18
2017-09-13T11:45:33.786Z,74.47
2017-09-13T11:46:33.791Z,74.76
2017-09-13T11:47:33.792Z,75.05
2017-09-13T11:48:33.787Z,75.1
2017-09-13T11:49:33.792Z,76.45
2017-09-13T11:50:34.143Z,76.93
2017-09-13T11:51:33.780Z,76.84
2017-09-13T11:52:33.476Z,77.67
2017-09-13T11:53:33.788Z,78.44
2017-09-13T11:54:33.794Z,78.06
2017-09-13T11:55:33.478Z,78.44
2017-09-13T11:56:33.783Z,78.44
2017-09-13T11:57:33.477Z,79.41
2017-09-13T11:58:33.777Z,79.5
2017-09-13T11:59:34.032Z,79.41
2017-09-13T12:00:33.785Z,79.41
2017-09-13T12:01:33.774Z,79.31
2017-09-13T12:02:33.777Z,79.79
2017-09-13T12:03:33.783Z,80.27
2017-09-13T12:04:34.049Z,81.1
2017-09-13T12:05:33.785Z,81.68
2017-09-13T12:06:33.467Z,82.06
2017-09-13T12:07:33.774Z,82.7
2017-09-13T12:08:33.773Z,82.79
2017-09-13T12:09:33.773Z,83.52
2017-09-13T12:10:33.455Z,84
2017-09-13T12:11:33.766Z,84.58
2017-09-13T12:12:33.756Z,84.39
2017-09-13T12:13:33.450Z,84.44
2017-09-13T12:14:33.755Z,85.02
2017-09-13T12:15:33.755Z,84.92
2017-09-13T12:16:33.750Z,85.6
2017-09-13T12:17:33.755Z,86.46
2017-09-13T12:18:33.752Z,86.27
2017-09-13T12:19:33.749Z,86.75
2017-09-13T12:20:33.442Z,86.46
2017-09-13T12:21:33.750Z,86.56
2017-09-13T12:22:33.746Z,86.13
2017-09-13T12:23:33.743Z,87.57
2017-09-13T12:24:33.427Z,86.52
2017-09-13T12:25:33.995Z,87.42
2017-09-13T12:26:33.733Z,87.19
2017-09-13T12:27:33.731Z,86.52
2017-09-13T12:28:33.723Z,87.48
2017-09-13T12:29:33.414Z,86.8
2017-09-13T12:30:33.983Z,87.38
2017-09-13T12:31:33.718Z,86.61
2017-09-13T12:32:33.713Z,86.13
2017-09-13T12:33:33.710Z,86.61
2017-09-13T12:34:33.717Z,86.27
2017-09-13T12:35:33.400Z,86.13
2017-09-13T12:36:33.702Z,85.55
2017-09-13T12:37:33.696Z,84.98
2017-09-13T12:38:33.702Z,85.55
2017-09-13T12:39:33.694Z,84.59
2017-09-13T12:40:33.686Z,84.88
2017-09-13T12:41:33.696Z,85.07
2017-09-13T12:42:33.682Z,84.98
2017-09-13T12:43:33.681Z,84.59
2017-09-13T12:44:33.685Z,85.07
2017-09-13T12:45:33.683Z,84.88
2017-09-13T12:46:33.679Z,85.07
2017-09-13T12:47:33.678Z,84.98
2017-09-13T12:48:33.669Z,84.92
2017-09-13T12:49:33.358Z,84.44
2017-09-13T12:50:33.672Z,84.21
2017-09-13T12:51:33.905Z,84.25
2017-09-13T12:52:33.665Z,84.44
2017-09-13T12:53:33.653Z,84.16
2017-09-13T12:54:33.659Z,84.16
2017-09-13T12:55:33.340Z,84.16